sensor_id;sensor_type;location;lat;lon;timestamp;temperature;humidity
9965;DHT22;5023;53.554;9.964;2022-10-16T00:00:43;14.80;99.90
9965;DHT22;5023;53.554;9.964;2022-10-16T00:05:46;14.80;99.90
9965;DHT22;5023;53.554;9.964;2022-10-16T00:10:48;14.80;99.90
9965;DHT22;5023;53.554;9.964;2022-10-16T00:15:50;14.90;99.90
9965;DHT22;5023;53.554;9.964;2022-10-16T00:20:53;14.80;99.90
9965;DHT22;5023;53.554;9.964;2022-10-16T00:25:55;14.80;99.90
9965;DHT22;5023;53.554;9.964;2022-10-16T00:30:58;14.80;99.90
9965;DHT22;5023;53.554;9.964;2022-10-16T00:36:02;14.80;99.90
9965;DHT22;5023;53.554;9.964;2022-10-16T00:41:06;14.80;99.90
9965;DHT22;5023;53.554;9.964;2022-10-16T00:46:14;14.80;99.90
9965;DHT22;5023;53.554;9.964;2022-10-16T00:51:19;14.80;99.90
9965;DHT22;5023;53.554;9.964;2022-10-16T00:56:23;14.80;99.90
9965;DHT22;5023;53.554;9.964;2022-10-16T01:01:25;14.80;99.90
9965;DHT22;5023;53.554;9.964;2022-10-16T01:06:36;14.70;99.90
9965;DHT22;5023;53.554;9.964;2022-10-16T01:11:46;14.80;99.90
9965;DHT22;5023;53.554;9.964;2022-10-16T01:16:57;14.70;99.90
9965;DHT22;5023;53.554;9.964;2022-10-16T01:22:01;14.70;99.90
9965;DHT22;5023;53.554;9.964;2022-10-16T01:27:12;14.70;99.90
9965;DHT22;5023;53.554;9.964;2022-10-16T01:32:17;14.70;99.90
9965;DHT22;5023;53.554;9.964;2022-10-16T01:37:26;14.70;99.90
9965;DHT22;5023;53.554;9.964;2022-10-16T01:42:34;14.60;99.90
9965;DHT22;5023;53.554;9.964;2022-10-16T01:47:37;14.60;99.90
9965;DHT22;5023;53.554;9.964;2022-10-16T01:52:43;14.50;99.90
9965;DHT22;5023;53.554;9.964;2022-10-16T01:57:49;14.50;99.90
9965;DHT22;5023;53.554;9.964;2022-10-16T02:02:54;14.50;99.90
9965;DHT22;5023;53.554;9.964;2022-10-16T02:07:56;14.40;99.90
9965;DHT22;5023;53.554;9.964;2022-10-16T02:13:03;14.40;99.90
9965;DHT22;5023;53.554;9.964;2022-10-16T02:18:07;14.30;99.90
9965;DHT22;5023;53.554;9.964;2022-10-16T02:23:14;14.40;99.90
9965;DHT22;5023;53.554;9.964;2022-10-16T02:28:24;14.30;99.90
9965;DHT22;5023;53.554;9.964;2022-10-16T02:33:29;14.30;99.90
9965;DHT22;5023;53.554;9.964;2022-10-16T02:38:32;14.30;99.90
9965;DHT22;5023;53.554;9.964;2022-10-16T02:43:36;14.30;99.90
9965;DHT22;5023;53.554;9.964;2022-10-16T02:48:37;14.20;99.90
9965;DHT22;5023;53.554;9.964;2022-10-16T02:53:39;14.20;99.90
9965;DHT22;5023;53.554;9.964;2022-10-16T02:58:43;14.10;99.90
9965;DHT22;5023;53.554;9.964;2022-10-16T03:03:44;14.10;99.90
9965;DHT22;5023;53.554;9.964;2022-10-16T03:08:47;14.10;99.90
9965;DHT22;5023;53.554;9.964;2022-10-16T03:13:50;14.10;99.90
9965;DHT22;5023;53.554;9.964;2022-10-16T03:18:52;14.10;99.90
9965;DHT22;5023;53.554;9.964;2022-10-16T03:23:54;14.00;99.90
9965;DHT22;5023;53.554;9.964;2022-10-16T03:28:57;14.00;99.90
9965;DHT22;5023;53.554;9.964;2022-10-16T03:33:59;13.90;99.90
9965;DHT22;5023;53.554;9.964;2022-10-16T03:39:01;13.90;99.90
9965;DHT22;5023;53.554;9.964;2022-10-16T03:44:04;14.00;99.90
9965;DHT22;5023;53.554;9.964;2022-10-16T03:49:06;13.90;99.90
9965;DHT22;5023;53.554;9.964;2022-10-16T03:54:10;13.90;99.90
9965;DHT22;5023;53.554;9.964;2022-10-16T03:59:14;13.90;99.90
9965;DHT22;5023;53.554;9.964;2022-10-16T04:04:15;13.80;99.90
9965;DHT22;5023;53.554;9.964;2022-10-16T04:09:17;13.80;99.90
9965;DHT22;5023;53.554;9.964;2022-10-16T04:14:21;13.80;99.90
9965;DHT22;5023;53.554;9.964;2022-10-16T04:19:23;13.80;99.90
9965;DHT22;5023;53.554;9.964;2022-10-16T04:24:25;13.80;99.90
9965;DHT22;5023;53.554;9.964;2022-10-16T04:29:28;13.70;99.90
9965;DHT22;5023;53.554;9.964;2022-10-16T04:34:30;13.80;99.90
9965;DHT22;5023;53.554;9.964;2022-10-16T04:39:32;13.80;99.90
9965;DHT22;5023;53.554;9.964;2022-10-16T04:44:36;13.80;99.90
9965;DHT22;5023;53.554;9.964;2022-10-16T04:49:38;13.80;99.90
9965;DHT22;5023;53.554;9.964;2022-10-16T04:54:40;13.80;99.90
9965;DHT22;5023;53.554;9.964;2022-10-16T04:59:43;13.80;99.90
9965;DHT22;5023;53.554;9.964;2022-10-16T05:04:45;13.80;99.90
9965;DHT22;5023;53.554;9.964;2022-10-16T05:09:47;13.70;99.90
9965;DHT22;5023;53.554;9.964;2022-10-16T05:14:51;13.70;99.90
9965;DHT22;5023;53.554;9.964;2022-10-16T05:19:53;13.80;99.90
9965;DHT22;5023;53.554;9.964;2022-10-16T05:24:55;13.80;99.90
9965;DHT22;5023;53.554;9.964;2022-10-16T05:29:58;13.80;99.90
9965;DHT22;5023;53.554;9.964;2022-10-16T05:35:00;13.80;99.90
9965;DHT22;5023;53.554;9.964;2022-10-16T05:40:03;13.80;99.90
9965;DHT22;5023;53.554;9.964;2022-10-16T05:45:10;13.80;99.90
9965;DHT22;5023;53.554;9.964;2022-10-16T05:50:13;13.80;99.90
9965;DHT22;5023;53.554;9.964;2022-10-16T05:55:15;13.80;99.90
9965;DHT22;5023;53.554;9.964;2022-10-16T06:00:18;13.90;99.90
9965;DHT22;5023;53.554;9.964;2022-10-16T06:05:20;13.90;99.90
9965;DHT22;5023;53.554;9.964;2022-10-16T06:10:22;13.90;99.90
9965;DHT22;5023;53.554;9.964;2022-10-16T06:15:26;14.00;99.90
9965;DHT22;5023;53.554;9.964;2022-10-16T06:20:28;14.00;99.90
9965;DHT22;5023;53.554;9.964;2022-10-16T06:25:30;14.00;99.90
9965;DHT22;5023;53.554;9.964;2022-10-16T06:30:33;14.00;99.90
9965;DHT22;5023;53.554;9.964;2022-10-16T06:35:36;14.00;99.90
9965;DHT22;5023;53.554;9.964;2022-10-16T06:40:38;14.00;99.90
9965;DHT22;5023;53.554;9.964;2022-10-16T06:45:41;14.10;99.90
9965;DHT22;5023;53.554;9.964;2022-10-16T06:50:43;14.00;99.90
9965;DHT22;5023;53.554;9.964;2022-10-16T06:55:45;14.00;99.90
9965;DHT22;5023;53.554;9.964;2022-10-16T07:00:48;14.00;99.90
9965;DHT22;5023;53.554;9.964;2022-10-16T07:05:51;14.10;99.90
9965;DHT22;5023;53.554;9.964;2022-10-16T07:10:58;14.10;99.90
9965;DHT22;5023;53.554;9.964;2022-10-16T07:16:07;14.30;99.90
9965;DHT22;5023;53.554;9.964;2022-10-16T07:21:11;14.30;99.90
9965;DHT22;5023;53.554;9.964;2022-10-16T07:26:13;14.50;99.90
9965;DHT22;5023;53.554;9.964;2022-10-16T07:31:18;14.50;99.90
9965;DHT22;5023;53.554;9.964;2022-10-16T07:36:21;14.50;99.90
9965;DHT22;5023;53.554;9.964;2022-10-16T07:41:23;14.50;99.90
9965;DHT22;5023;53.554;9.964;2022-10-16T07:46:27;14.60;99.90
9965;DHT22;5023;53.554;9.964;2022-10-16T07:51:31;14.70;99.90
9965;DHT22;5023;53.554;9.964;2022-10-16T07:56:33;14.80;99.90
9965;DHT22;5023;53.554;9.964;2022-10-16T08:01:36;14.80;99.90
9965;DHT22;5023;53.554;9.964;2022-10-16T08:06:40;14.90;99.90
9965;DHT22;5023;53.554;9.964;2022-10-16T08:11:42;14.90;99.90
9965;DHT22;5023;53.554;9.964;2022-10-16T08:16:46;14.90;99.90
9965;DHT22;5023;53.554;9.964;2022-10-16T08:21:48;14.90;99.90
9965;DHT22;5023;53.554;9.964;2022-10-16T08:26:50;14.90;99.90
9965;DHT22;5023;53.554;9.964;2022-10-16T08:31:56;15.00;99.90
9965;DHT22;5023;53.554;9.964;2022-10-16T08:36:59;15.00;99.90
9965;DHT22;5023;53.554;9.964;2022-10-16T08:42:15;15.10;99.90
9965;DHT22;5023;53.554;9.964;2022-10-16T08:47:24;15.20;99.90
9965;DHT22;5023;53.554;9.964;2022-10-16T08:52:30;15.20;99.90
9965;DHT22;5023;53.554;9.964;2022-10-16T08:57:34;15.20;99.90
9965;DHT22;5023;53.554;9.964;2022-10-16T09:02:40;15.40;99.90
9965;DHT22;5023;53.554;9.964;2022-10-16T09:07:49;15.50;99.90
9965;DHT22;5023;53.554;9.964;2022-10-16T09:13:03;15.60;99.90
9965;DHT22;5023;53.554;9.964;2022-10-16T09:18:16;15.80;99.90
9965;DHT22;5023;53.554;9.964;2022-10-16T09:23:26;15.80;99.90
9965;DHT22;5023;53.554;9.964;2022-10-16T09:28:28;15.90;99.90
9965;DHT22;5023;53.554;9.964;2022-10-16T09:33:34;16.00;99.90
9965;DHT22;5023;53.554;9.964;2022-10-16T09:38:38;16.20;99.90
9965;DHT22;5023;53.554;9.964;2022-10-16T09:43:41;16.30;99.90
9965;DHT22;5023;53.554;9.964;2022-10-16T09:48:48;16.40;99.90
9965;DHT22;5023;53.554;9.964;2022-10-16T09:53:55;16.50;99.90
9965;DHT22;5023;53.554;9.964;2022-10-16T09:59:00;16.60;99.90
9965;DHT22;5023;53.554;9.964;2022-10-16T10:04:03;16.70;99.90
9965;DHT22;5023;53.554;9.964;2022-10-16T10:09:14;16.70;99.90
9965;DHT22;5023;53.554;9.964;2022-10-16T10:14:23;16.70;99.90
9965;DHT22;5023;53.554;9.964;2022-10-16T10:19:28;16.70;99.90
9965;DHT22;5023;53.554;9.964;2022-10-16T10:24:30;16.70;99.90
9965;DHT22;5023;53.554;9.964;2022-10-16T10:29:44;16.80;99.90
9965;DHT22;5023;53.554;9.964;2022-10-16T10:35:15;16.80;99.90
9965;DHT22;5023;53.554;9.964;2022-10-16T10:40:30;16.90;99.90
9965;DHT22;5023;53.554;9.964;2022-10-16T10:45:41;17.00;99.90
9965;DHT22;5023;53.554;9.964;2022-10-16T10:50:50;17.10;99.90
9965;DHT22;5023;53.554;9.964;2022-10-16T10:56:00;17.30;99.90
9965;DHT22;5023;53.554;9.964;2022-10-16T11:01:09;17.40;99.90
9965;DHT22;5023;53.554;9.964;2022-10-16T11:06:18;17.40;99.90
9965;DHT22;5023;53.554;9.964;2022-10-16T11:11:29;17.40;99.90
9965;DHT22;5023;53.554;9.964;2022-10-16T11:16:36;17.50;99.90
9965;DHT22;5023;53.554;9.964;2022-10-16T11:21:46;17.70;99.90
9965;DHT22;5023;53.554;9.964;2022-10-16T11:26:53;17.80;99.90
9965;DHT22;5023;53.554;9.964;2022-10-16T11:31:59;17.80;99.90
9965;DHT22;5023;53.554;9.964;2022-10-16T11:37:08;17.90;99.90
9965;DHT22;5023;53.554;9.964;2022-10-16T11:42:16;17.90;99.90
9965;DHT22;5023;53.554;9.964;2022-10-16T11:47:30;18.00;99.90
9965;DHT22;5023;53.554;9.964;2022-10-16T11:52:42;18.10;99.90
9965;DHT22;5023;53.554;9.964;2022-10-16T11:57:51;18.00;99.90
9965;DHT22;5023;53.554;9.964;2022-10-16T12:03:02;18.00;99.90
9965;DHT22;5023;53.554;9.964;2022-10-16T12:08:10;17.90;99.90
9965;DHT22;5023;53.554;9.964;2022-10-16T12:13:32;17.90;99.90
9965;DHT22;5023;53.554;9.964;2022-10-16T12:18:35;17.80;99.90
9965;DHT22;5023;53.554;9.964;2022-10-16T12:23:46;17.70;99.90
9965;DHT22;5023;53.554;9.964;2022-10-16T12:28:48;17.60;99.90
9965;DHT22;5023;53.554;9.964;2022-10-16T12:33:59;17.50;99.90
9965;DHT22;5023;53.554;9.964;2022-10-16T12:39:03;17.70;99.90
9965;DHT22;5023;53.554;9.964;2022-10-16T12:44:22;17.80;99.90
9965;DHT22;5023;53.554;9.964;2022-10-16T12:49:31;17.80;99.90
9965;DHT22;5023;53.554;9.964;2022-10-16T12:54:37;17.80;99.90
9965;DHT22;5023;53.554;9.964;2022-10-16T12:59:48;17.70;99.90
9965;DHT22;5023;53.554;9.964;2022-10-16T13:05:05;17.60;99.90
9965;DHT22;5023;53.554;9.964;2022-10-16T13:10:23;17.60;99.90
9965;DHT22;5023;53.554;9.964;2022-10-16T13:15:47;17.60;99.90
9965;DHT22;5023;53.554;9.964;2022-10-16T13:21:01;17.70;99.90
9965;DHT22;5023;53.554;9.964;2022-10-16T13:26:15;17.60;99.90
9965;DHT22;5023;53.554;9.964;2022-10-16T13:31:21;17.60;99.90
9965;DHT22;5023;53.554;9.964;2022-10-16T13:36:25;17.70;99.90
9965;DHT22;5023;53.554;9.964;2022-10-16T13:41:29;17.80;99.90
9965;DHT22;5023;53.554;9.964;2022-10-16T13:46:32;17.90;99.90
9965;DHT22;5023;53.554;9.964;2022-10-16T13:51:34;18.00;99.90
9965;DHT22;5023;53.554;9.964;2022-10-16T13:56:39;18.10;99.90
9965;DHT22;5023;53.554;9.964;2022-10-16T14:01:43;18.10;99.90
9965;DHT22;5023;53.554;9.964;2022-10-16T14:06:48;18.10;99.90
9965;DHT22;5023;53.554;9.964;2022-10-16T14:11:54;18.10;99.90
9965;DHT22;5023;53.554;9.964;2022-10-16T14:16:57;18.00;99.90
9965;DHT22;5023;53.554;9.964;2022-10-16T14:22:01;18.00;99.90
9965;DHT22;5023;53.554;9.964;2022-10-16T14:32:28;17.90;99.90
9965;DHT22;5023;53.554;9.964;2022-10-16T14:37:30;17.90;99.90
9965;DHT22;5023;53.554;9.964;2022-10-16T14:42:32;17.90;99.90
9965;DHT22;5023;53.554;9.964;2022-10-16T14:47:37;17.90;99.90
9965;DHT22;5023;53.554;9.964;2022-10-16T14:52:48;17.90;99.90
9965;DHT22;5023;53.554;9.964;2022-10-16T14:57:51;17.90;99.90
9965;DHT22;5023;53.554;9.964;2022-10-16T15:02:54;17.80;99.90
9965;DHT22;5023;53.554;9.964;2022-10-16T15:07:56;17.80;99.90
9965;DHT22;5023;53.554;9.964;2022-10-16T15:12:58;17.70;99.90
9965;DHT22;5023;53.554;9.964;2022-10-16T15:18:01;17.60;99.90
9965;DHT22;5023;53.554;9.964;2022-10-16T15:23:05;17.50;99.90
9965;DHT22;5023;53.554;9.964;2022-10-16T15:28:09;17.50;99.90
9965;DHT22;5023;53.554;9.964;2022-10-16T15:33:15;17.40;99.90
9965;DHT22;5023;53.554;9.964;2022-10-16T15:38:17;17.40;99.90
9965;DHT22;5023;53.554;9.964;2022-10-16T15:43:20;17.30;99.90
9965;DHT22;5023;53.554;9.964;2022-10-16T15:48:23;17.20;99.90
9965;DHT22;5023;53.554;9.964;2022-10-16T15:53:25;17.20;99.90
9965;DHT22;5023;53.554;9.964;2022-10-16T15:58:27;17.10;99.90
9965;DHT22;5023;53.554;9.964;2022-10-16T16:03:32;17.00;99.90
9965;DHT22;5023;53.554;9.964;2022-10-16T16:08:37;16.90;99.90
9965;DHT22;5023;53.554;9.964;2022-10-16T16:13:39;16.90;99.90
9965;DHT22;5023;53.554;9.964;2022-10-16T16:18:43;16.80;99.90
9965;DHT22;5023;53.554;9.964;2022-10-16T16:23:45;16.70;99.90
9965;DHT22;5023;53.554;9.964;2022-10-16T16:28:47;16.60;99.90
9965;DHT22;5023;53.554;9.964;2022-10-16T16:33:50;16.60;99.90
9965;DHT22;5023;53.554;9.964;2022-10-16T16:38:53;16.40;99.90
9965;DHT22;5023;53.554;9.964;2022-10-16T16:43:55;16.50;99.90
9965;DHT22;5023;53.554;9.964;2022-10-16T16:48:59;16.30;99.90
9965;DHT22;5023;53.554;9.964;2022-10-16T16:54:02;16.20;99.90
9965;DHT22;5023;53.554;9.964;2022-10-16T16:59:04;16.10;99.90
9965;DHT22;5023;53.554;9.964;2022-10-16T17:04:07;16.00;99.90
9965;DHT22;5023;53.554;9.964;2022-10-16T17:09:11;15.90;99.90
9965;DHT22;5023;53.554;9.964;2022-10-16T17:14:15;15.80;99.90
9965;DHT22;5023;53.554;9.964;2022-10-16T17:19:19;15.70;99.90
9965;DHT22;5023;53.554;9.964;2022-10-16T17:24:21;15.60;99.90
9965;DHT22;5023;53.554;9.964;2022-10-16T17:29:24;15.50;99.90
9965;DHT22;5023;53.554;9.964;2022-10-16T17:34:28;15.50;99.90
9965;DHT22;5023;53.554;9.964;2022-10-16T17:39:30;15.40;99.90
9965;DHT22;5023;53.554;9.964;2022-10-16T17:44:32;15.40;99.90
9965;DHT22;5023;53.554;9.964;2022-10-16T17:49:35;15.40;99.90
9965;DHT22;5023;53.554;9.964;2022-10-16T17:54:37;15.30;99.90
9965;DHT22;5023;53.554;9.964;2022-10-16T17:59:40;15.30;99.90
9965;DHT22;5023;53.554;9.964;2022-10-16T18:04:43;15.20;99.90
9965;DHT22;5023;53.554;9.964;2022-10-16T18:09:45;15.10;99.90
9965;DHT22;5023;53.554;9.964;2022-10-16T18:14:47;15.10;99.90
9965;DHT22;5023;53.554;9.964;2022-10-16T18:19:51;15.10;99.90
9965;DHT22;5023;53.554;9.964;2022-10-16T18:24:53;15.00;99.90
9965;DHT22;5023;53.554;9.964;2022-10-16T18:29:54;14.90;99.90
9965;DHT22;5023;53.554;9.964;2022-10-16T18:34:58;14.80;99.90
9965;DHT22;5023;53.554;9.964;2022-10-16T18:40:00;14.80;99.90
9965;DHT22;5023;53.554;9.964;2022-10-16T18:45:03;14.70;99.90
9965;DHT22;5023;53.554;9.964;2022-10-16T18:50:07;14.70;99.90
9965;DHT22;5023;53.554;9.964;2022-10-16T18:55:09;14.70;99.90
9965;DHT22;5023;53.554;9.964;2022-10-16T19:00:12;14.60;99.90
9965;DHT22;5023;53.554;9.964;2022-10-16T19:05:15;14.60;99.90
9965;DHT22;5023;53.554;9.964;2022-10-16T19:10:17;14.60;99.90
9965;DHT22;5023;53.554;9.964;2022-10-16T19:15:19;14.50;99.90
9965;DHT22;5023;53.554;9.964;2022-10-16T19:20:23;14.50;99.90
9965;DHT22;5023;53.554;9.964;2022-10-16T19:25:25;14.50;99.90
9965;DHT22;5023;53.554;9.964;2022-10-16T19:30:27;14.40;99.90
9965;DHT22;5023;53.554;9.964;2022-10-16T19:35:31;14.40;99.90
9965;DHT22;5023;53.554;9.964;2022-10-16T19:40:33;14.30;99.90
9965;DHT22;5023;53.554;9.964;2022-10-16T19:45:35;14.20;99.90
9965;DHT22;5023;53.554;9.964;2022-10-16T19:50:44;14.20;99.90
9965;DHT22;5023;53.554;9.964;2022-10-16T19:55:46;14.10;99.90
9965;DHT22;5023;53.554;9.964;2022-10-16T20:00:48;14.10;99.90
9965;DHT22;5023;53.554;9.964;2022-10-16T20:05:53;14.10;99.90
9965;DHT22;5023;53.554;9.964;2022-10-16T20:10:56;14.10;99.90
9965;DHT22;5023;53.554;9.964;2022-10-16T20:15:58;14.00;99.90
9965;DHT22;5023;53.554;9.964;2022-10-16T20:21:07;14.00;99.90
9965;DHT22;5023;53.554;9.964;2022-10-16T20:26:09;14.10;99.90
9965;DHT22;5023;53.554;9.964;2022-10-16T20:31:13;14.10;99.90
9965;DHT22;5023;53.554;9.964;2022-10-16T20:36:19;14.10;99.90
9965;DHT22;5023;53.554;9.964;2022-10-16T20:41:22;14.10;99.90
9965;DHT22;5023;53.554;9.964;2022-10-16T20:46:26;14.00;99.90
9965;DHT22;5023;53.554;9.964;2022-10-16T20:51:31;14.00;99.90
9965;DHT22;5023;53.554;9.964;2022-10-16T20:56:35;14.00;99.90
9965;DHT22;5023;53.554;9.964;2022-10-16T21:01:37;14.00;99.90
9965;DHT22;5023;53.554;9.964;2022-10-16T21:06:40;14.00;99.90
9965;DHT22;5023;53.554;9.964;2022-10-16T21:11:44;14.00;99.90
9965;DHT22;5023;53.554;9.964;2022-10-16T21:16:46;14.00;99.90
9965;DHT22;5023;53.554;9.964;2022-10-16T21:21:50;14.00;99.90
9965;DHT22;5023;53.554;9.964;2022-10-16T21:26:52;14.00;99.90
9965;DHT22;5023;53.554;9.964;2022-10-16T21:31:54;14.00;99.90
9965;DHT22;5023;53.554;9.964;2022-10-16T21:36:57;13.90;99.90
9965;DHT22;5023;53.554;9.964;2022-10-16T21:41:59;13.90;99.90
9965;DHT22;5023;53.554;9.964;2022-10-16T21:47:01;13.90;99.90
9965;DHT22;5023;53.554;9.964;2022-10-16T21:52:05;13.90;99.90
9965;DHT22;5023;53.554;9.964;2022-10-16T21:57:07;13.90;99.90
9965;DHT22;5023;53.554;9.964;2022-10-16T22:02:09;13.80;99.90
9965;DHT22;5023;53.554;9.964;2022-10-16T22:07:12;13.80;99.90
9965;DHT22;5023;53.554;9.964;2022-10-16T22:12:14;13.80;99.90
9965;DHT22;5023;53.554;9.964;2022-10-16T22:17:19;13.80;99.90
9965;DHT22;5023;53.554;9.964;2022-10-16T22:22:22;13.80;99.90
9965;DHT22;5023;53.554;9.964;2022-10-16T22:27:24;13.90;99.90
9965;DHT22;5023;53.554;9.964;2022-10-16T22:32:26;13.80;99.90
9965;DHT22;5023;53.554;9.964;2022-10-16T22:37:29;13.80;99.90
9965;DHT22;5023;53.554;9.964;2022-10-16T22:42:31;13.80;99.90
9965;DHT22;5023;53.554;9.964;2022-10-16T22:47:33;13.80;99.90
9965;DHT22;5023;53.554;9.964;2022-10-16T22:52:37;13.80;99.90
9965;DHT22;5023;53.554;9.964;2022-10-16T22:57:38;13.80;99.90
9965;DHT22;5023;53.554;9.964;2022-10-16T23:02:41;13.80;99.90
9965;DHT22;5023;53.554;9.964;2022-10-16T23:07:44;13.80;99.90
9965;DHT22;5023;53.554;9.964;2022-10-16T23:12:46;13.70;99.90
9965;DHT22;5023;53.554;9.964;2022-10-16T23:17:48;13.80;99.90
9965;DHT22;5023;53.554;9.964;2022-10-16T23:22:51;13.70;99.90
9965;DHT22;5023;53.554;9.964;2022-10-16T23:27:53;13.70;99.90
9965;DHT22;5023;53.554;9.964;2022-10-16T23:32:55;13.60;99.90
9965;DHT22;5023;53.554;9.964;2022-10-16T23:37:58;13.70;99.90
9965;DHT22;5023;53.554;9.964;2022-10-16T23:43:00;13.70;99.90
9965;DHT22;5023;53.554;9.964;2022-10-16T23:48:02;13.60;99.90
9965;DHT22;5023;53.554;9.964;2022-10-16T23:53:05;13.60;99.90
9965;DHT22;5023;53.554;9.964;2022-10-16T23:58:07;13.60;99.90
